Giddings, Texas
Current Conditions -  °F | °C
As of 4:35 PM on Friday 24 Oct 2014 (Local Time) from KGYB Reporting Station
Clear Clear  
Wind Chill: 28°   Ceiling: Unl
Heat Index: 28°   Visibility: 7mi
Dew Point: 14°   Wind: 6mph
Humidity: 42%   Direction: 90°E
Pressure: 30.13"   Gusts: NA
Location:  30.18°N, 96.94°W
Report Text: KGYB 242135Z AUTO 09005KT 7SM CLR 28/14 A3013 RMK AO2 T02800139
Loading
Personal Weather Stations






























Interactive Weather Map
Tropical Storm Tracking
New forecast layout! Learn more

10-Day Weather Forecast

Advertisements
Track Severe Weather on mobile